sensor_id;sensor_type;location;lat;lon;timestamp;pressure;altitude;pressure_sealevel;temperature;humidity
26807;BME280;14380;49.910;6.792;2022-11-13T00:00:28;99914.91;;;5.72;100.00
26807;BME280;14380;49.910;6.792;2022-11-13T00:02:55;99911.44;;;5.71;100.00
26807;BME280;14380;49.910;6.792;2022-11-13T00:05:22;99907.59;;;5.92;100.00
26807;BME280;14380;49.910;6.792;2022-11-13T00:07:49;99916.53;;;5.79;100.00
26807;BME280;14380;49.910;6.792;2022-11-13T00:10:15;99917.19;;;5.93;100.00
26807;BME280;14380;49.910;6.792;2022-11-13T00:12:41;99918.44;;;5.69;100.00
26807;BME280;14380;49.910;6.792;2022-11-13T00:15:08;99904.19;;;5.86;100.00
26807;BME280;14380;49.910;6.792;2022-11-13T00:17:35;99905.94;;;5.85;100.00
26807;BME280;14380;49.910;6.792;2022-11-13T00:20:01;99900.78;;;5.80;100.00
26807;BME280;14380;49.910;6.792;2022-11-13T00:22:29;99905.31;;;5.71;100.00
26807;BME280;14380;49.910;6.792;2022-11-13T00:24:55;99897.25;;;5.81;100.00
26807;BME280;14380;49.910;6.792;2022-11-13T00:27:21;99883.31;;;5.79;100.00
26807;BME280;14380;49.910;6.792;2022-11-13T00:29:48;99884.25;;;5.75;100.00
26807;BME280;14380;49.910;6.792;2022-11-13T00:32:14;99886.97;;;5.72;100.00
26807;BME280;14380;49.910;6.792;2022-11-13T00:34:40;99878.38;;;5.64;100.00
26807;BME280;14380;49.910;6.792;2022-11-13T00:37:07;99877.84;;;5.42;100.00
26807;BME280;14380;49.910;6.792;2022-11-13T00:39:34;99872.53;;;5.48;100.00
26807;BME280;14380;49.910;6.792;2022-11-13T00:42:01;99862.59;;;5.65;100.00
26807;BME280;14380;49.910;6.792;2022-11-13T00:44:27;99862.63;;;5.64;100.00
26807;BME280;14380;49.910;6.792;2022-11-13T00:46:53;99864.47;;;5.59;100.00
26807;BME280;14380;49.910;6.792;2022-11-13T00:49:19;99864.44;;;5.60;100.00
26807;BME280;14380;49.910;6.792;2022-11-13T00:51:46;99863.69;;;5.52;100.00
26807;BME280;14380;49.910;6.792;2022-11-13T00:54:12;99863.63;;;5.55;100.00
26807;BME280;14380;49.910;6.792;2022-11-13T00:56:40;99862.88;;;5.48;100.00
26807;BME280;14380;49.910;6.792;2022-11-13T00:59:06;99849.84;;;5.45;100.00
26807;BME280;14380;49.910;6.792;2022-11-13T01:01:32;99858.63;;;5.43;100.00
26807;BME280;14380;49.910;6.792;2022-11-13T01:03:59;99857.84;;;5.36;100.00
26807;BME280;14380;49.910;6.792;2022-11-13T01:06:26;99849.88;;;5.42;100.00
26807;BME280;14380;49.910;6.792;2022-11-13T01:08:53;99854.47;;;5.29;100.00
26807;BME280;14380;49.910;6.792;2022-11-13T01:11:20;99851.09;;;5.23;100.00
26807;BME280;14380;49.910;6.792;2022-11-13T01:13:49;99853.44;;;5.40;100.00
26807;BME280;14380;49.910;6.792;2022-11-13T01:16:16;99850.81;;;5.38;100.00
26807;BME280;14380;49.910;6.792;2022-11-13T01:18:43;99841.13;;;5.45;100.00
26807;BME280;14380;49.910;6.792;2022-11-13T01:21:10;99839.34;;;5.47;100.00
26807;BME280;14380;49.910;6.792;2022-11-13T01:23:38;99841.97;;;5.45;100.00
26807;BME280;14380;49.910;6.792;2022-11-13T01:26:05;99848.19;;;5.40;100.00
26807;BME280;14380;49.910;6.792;2022-11-13T01:28:32;99848.22;;;5.38;100.00
26807;BME280;14380;49.910;6.792;2022-11-13T01:30:59;99844.59;;;5.47;100.00
26807;BME280;14380;49.910;6.792;2022-11-13T01:33:26;99842.25;;;5.28;100.00
26807;BME280;14380;49.910;6.792;2022-11-13T01:35:54;99844.75;;;5.38;100.00
26807;BME280;14380;49.910;6.792;2022-11-13T01:38:24;99840.44;;;5.32;100.00
26807;BME280;14380;49.910;6.792;2022-11-13T01:40:50;99839.50;;;5.38;100.00
26807;BME280;14380;49.910;6.792;2022-11-13T01:43:22;99837.97;;;5.26;100.00
26807;BME280;14380;49.910;6.792;2022-11-13T01:48:38;99836.78;;;5.42;100.00
26807;BME280;14380;49.910;6.792;2022-11-13T01:51:07;99835.81;;;5.49;100.00
26807;BME280;14380;49.910;6.792;2022-11-13T01:53:34;99830.84;;;5.31;100.00
26807;BME280;14380;49.910;6.792;2022-11-13T01:56:01;99827.63;;;5.16;100.00
26807;BME280;14380;49.910;6.792;2022-11-13T01:58:27;99825.94;;;5.12;100.00
26807;BME280;14380;49.910;6.792;2022-11-13T02:00:53;99821.50;;;5.17;100.00
26807;BME280;14380;49.910;6.792;2022-11-13T02:03:20;99825.97;;;5.09;100.00
26807;BME280;14380;49.910;6.792;2022-11-13T02:05:47;99815.47;;;5.11;100.00
26807;BME280;14380;49.910;6.792;2022-11-13T02:08:14;99805.75;;;5.20;100.00
26807;BME280;14380;49.910;6.792;2022-11-13T02:10:41;99809.31;;;5.15;100.00
26807;BME280;14380;49.910;6.792;2022-11-13T02:13:07;99809.06;;;5.30;100.00
26807;BME280;14380;49.910;6.792;2022-11-13T02:15:35;99809.41;;;5.09;100.00
26807;BME280;14380;49.910;6.792;2022-11-13T02:18:02;99809.66;;;4.91;100.00
26807;BME280;14380;49.910;6.792;2022-11-13T02:20:30;99807.72;;;5.06;100.00
26807;BME280;14380;49.910;6.792;2022-11-13T02:23:00;99800.69;;;5.08;100.00
26807;BME280;14380;49.910;6.792;2022-11-13T02:25:29;99797.97;;;5.14;100.00
26807;BME280;14380;49.910;6.792;2022-11-13T02:27:57;99798.97;;;5.07;100.00
26807;BME280;14380;49.910;6.792;2022-11-13T02:30:24;99799.78;;;5.11;100.00
26807;BME280;14380;49.910;6.792;2022-11-13T02:32:52;99794.63;;;5.06;100.00
26807;BME280;14380;49.910;6.792;2022-11-13T02:35:19;99792.41;;;4.81;100.00
26807;BME280;14380;49.910;6.792;2022-11-13T02:37:46;99792.41;;;4.81;100.00
26807;BME280;14380;49.910;6.792;2022-11-13T02:40:13;99785.16;;;4.97;100.00
26807;BME280;14380;49.910;6.792;2022-11-13T02:42:40;99780.25;;;4.75;100.00
26807;BME280;14380;49.910;6.792;2022-11-13T02:45:07;99782.25;;;4.58;100.00
26807;BME280;14380;49.910;6.792;2022-11-13T02:47:33;99778.06;;;5.04;100.00
26807;BME280;14380;49.910;6.792;2022-11-13T02:50:00;99776.34;;;5.04;100.00
26807;BME280;14380;49.910;6.792;2022-11-13T02:52:26;99765.63;;;5.17;100.00
26807;BME280;14380;49.910;6.792;2022-11-13T02:54:52;99762.22;;;5.13;100.00
26807;BME280;14380;49.910;6.792;2022-11-13T02:57:19;99767.59;;;5.05;100.00
26807;BME280;14380;49.910;6.792;2022-11-13T02:59:46;99765.13;;;4.96;100.00
26807;BME280;14380;49.910;6.792;2022-11-13T03:02:12;99759.41;;;4.69;100.00
26807;BME280;14380;49.910;6.792;2022-11-13T03:04:39;99762.63;;;4.87;100.00
26807;BME280;14380;49.910;6.792;2022-11-13T03:07:05;99756.38;;;4.96;100.00
26807;BME280;14380;49.910;6.792;2022-11-13T03:09:32;99755.59;;;4.92;100.00
26807;BME280;14380;49.910;6.792;2022-11-13T03:11:58;99759.38;;;4.72;100.00
26807;BME280;14380;49.910;6.792;2022-11-13T03:14:24;99752.78;;;5.04;100.00
26807;BME280;14380;49.910;6.792;2022-11-13T03:16:52;99745.78;;;5.05;100.00
26807;BME280;14380;49.910;6.792;2022-11-13T03:19:18;99753.38;;;5.20;100.00
26807;BME280;14380;49.910;6.792;2022-11-13T03:21:45;99748.09;;;5.24;100.00
26807;BME280;14380;49.910;6.792;2022-11-13T03:24:11;99746.31;;;5.24;100.00
26807;BME280;14380;49.910;6.792;2022-11-13T03:26:37;99746.47;;;5.16;100.00
26807;BME280;14380;49.910;6.792;2022-11-13T03:29:04;99740.03;;;5.34;100.00
26807;BME280;14380;49.910;6.792;2022-11-13T03:31:30;99740.88;;;5.36;100.00
26807;BME280;14380;49.910;6.792;2022-11-13T03:33:57;99744.75;;;5.14;100.00
26807;BME280;14380;49.910;6.792;2022-11-13T03:36:24;99744.41;;;5.34;100.00
26807;BME280;14380;49.910;6.792;2022-11-13T03:38:50;99740.16;;;5.28;100.00
26807;BME280;14380;49.910;6.792;2022-11-13T03:41:17;99739.81;;;5.47;100.00
26807;BME280;14380;49.910;6.792;2022-11-13T03:43:43;99738.06;;;5.47;100.00
26807;BME280;14380;49.910;6.792;2022-11-13T03:46:09;99730.09;;;5.52;100.00
26807;BME280;14380;49.910;6.792;2022-11-13T03:48:36;99724.81;;;5.55;100.00
26807;BME280;14380;49.910;6.792;2022-11-13T03:51:03;99730.88;;;5.57;100.00
26807;BME280;14380;49.910;6.792;2022-11-13T03:53:30;99725.44;;;5.68;100.00
26807;BME280;14380;49.910;6.792;2022-11-13T03:55:56;99728.31;;;5.56;100.00
26807;BME280;14380;49.910;6.792;2022-11-13T03:58:22;99719.50;;;5.60;100.00
26807;BME280;14380;49.910;6.792;2022-11-13T04:00:49;99717.97;;;5.48;100.00
26807;BME280;14380;49.910;6.792;2022-11-13T04:03:16;99719.59;;;5.54;100.00
26807;BME280;14380;49.910;6.792;2022-11-13T04:05:42;99717.81;;;5.56;100.00
26807;BME280;14380;49.910;6.792;2022-11-13T04:08:10;99719.94;;;5.36;100.00
26807;BME280;14380;49.910;6.792;2022-11-13T04:10:36;99704.06;;;5.46;100.00
26807;BME280;14380;49.910;6.792;2022-11-13T04:13:02;99697.91;;;5.47;100.00
26807;BME280;14380;49.910;6.792;2022-11-13T04:15:28;99697.25;;;5.34;100.00
26807;BME280;14380;49.910;6.792;2022-11-13T04:17:55;99695.53;;;5.34;100.00
26807;BME280;14380;49.910;6.792;2022-11-13T04:20:21;99696.53;;;4.75;100.00
26807;BME280;14380;49.910;6.792;2022-11-13T04:22:47;99697.88;;;4.45;100.00
26807;BME280;14380;49.910;6.792;2022-11-13T04:25:15;99695.97;;;4.56;100.00
26807;BME280;14380;49.910;6.792;2022-11-13T04:27:42;99691.72;;;4.49;100.00
26807;BME280;14380;49.910;6.792;2022-11-13T04:30:08;99702.16;;;4.49;100.00
26807;BME280;14380;49.910;6.792;2022-11-13T04:32:35;99691.41;;;4.69;100.00
26807;BME280;14380;49.910;6.792;2022-11-13T04:35:01;99689.81;;;4.60;100.00
26807;BME280;14380;49.910;6.792;2022-11-13T04:37:27;99686.47;;;4.49;100.00
26807;BME280;14380;49.910;6.792;2022-11-13T04:39:54;99675.81;;;4.63;100.00
26807;BME280;14380;49.910;6.792;2022-11-13T04:42:21;99691.00;;;4.41;100.00
26807;BME280;14380;49.910;6.792;2022-11-13T04:45:05;99684.69;;;4.51;100.00
26807;BME280;14380;49.910;6.792;2022-11-13T04:47:32;99679.47;;;4.51;100.00
26807;BME280;14380;49.910;6.792;2022-11-13T04:49:58;99683.69;;;4.61;100.00
26807;BME280;14380;49.910;6.792;2022-11-13T04:52:24;99675.94;;;4.55;100.00
26807;BME280;14380;49.910;6.792;2022-11-13T04:54:52;99679.41;;;4.56;100.00
26807;BME280;14380;49.910;6.792;2022-11-13T04:57:18;99674.47;;;4.39;100.00
26807;BME280;14380;49.910;6.792;2022-11-13T04:59:46;99677.84;;;4.44;100.00
26807;BME280;14380;49.910;6.792;2022-11-13T05:02:12;99670.34;;;4.21;100.00
26807;BME280;14380;49.910;6.792;2022-11-13T05:04:39;99669.44;;;4.22;100.00
26807;BME280;14380;49.910;6.792;2022-11-13T05:07:05;99665.31;;;4.07;100.00
26807;BME280;14380;49.910;6.792;2022-11-13T05:09:31;99666.03;;;4.18;100.00
26807;BME280;14380;49.910;6.792;2022-11-13T05:11:58;99661.91;;;4.01;100.00
26807;BME280;14380;49.910;6.792;2022-11-13T05:14:24;99666.28;;;3.99;100.00
26807;BME280;14380;49.910;6.792;2022-11-13T05:16:52;99666.28;;;3.99;100.00
26807;BME280;14380;49.910;6.792;2022-11-13T05:19:18;99661.94;;;3.98;100.00
26807;BME280;14380;49.910;6.792;2022-11-13T05:21:44;99666.34;;;3.96;100.00
26807;BME280;14380;49.910;6.792;2022-11-13T05:24:11;99658.59;;;3.89;100.00
26807;BME280;14380;49.910;6.792;2022-11-13T05:26:37;99655.09;;;3.91;100.00
26807;BME280;14380;49.910;6.792;2022-11-13T05:29:03;99660.28;;;3.94;100.00
26807;BME280;14380;49.910;6.792;2022-11-13T05:31:30;99650.66;;;3.96;100.00
26807;BME280;14380;49.910;6.792;2022-11-13T05:33:58;99655.88;;;3.98;100.00
26807;BME280;14380;49.910;6.792;2022-11-13T05:36:24;99655.97;;;3.89;100.00
26807;BME280;14380;49.910;6.792;2022-11-13T05:38:50;99653.59;;;3.73;100.00
26807;BME280;14380;49.910;6.792;2022-11-13T05:41:18;99660.47;;;3.79;100.00
26807;BME280;14380;49.910;6.792;2022-11-13T05:43:45;99655.09;;;3.90;100.00
26807;BME280;14380;49.910;6.792;2022-11-13T05:46:11;99648.22;;;3.84;100.00
26807;BME280;14380;49.910;6.792;2022-11-13T05:48:38;99658.88;;;3.65;100.00
26807;BME280;14380;49.910;6.792;2022-11-13T05:51:07;99654.53;;;3.64;100.00
26807;BME280;14380;49.910;6.792;2022-11-13T05:53:33;99653.59;;;3.73;100.00
26807;BME280;14380;49.910;6.792;2022-11-13T05:56:00;99654.47;;;3.72;100.00
26807;BME280;14380;49.910;6.792;2022-11-13T05:58:27;99648.28;;;3.78;100.00
26807;BME280;14380;49.910;6.792;2022-11-13T06:00:53;99638.06;;;3.61;100.00
26807;BME280;14380;49.910;6.792;2022-11-13T06:03:30;99639.84;;;3.59;100.00
26807;BME280;14380;49.910;6.792;2022-11-13T06:05:56;99633.91;;;3.44;100.00
26807;BME280;14380;49.910;6.792;2022-11-13T06:08:24;99628.63;;;3.50;100.00
26807;BME280;14380;49.910;6.792;2022-11-13T06:10:51;99622.47;;;3.54;100.00
26807;BME280;14380;49.910;6.792;2022-11-13T06:13:17;99619.94;;;3.50;100.00
26807;BME280;14380;49.910;6.792;2022-11-13T06:15:43;99618.13;;;3.53;100.00
26807;BME280;14380;49.910;6.792;2022-11-13T06:18:10;99622.69;;;3.37;100.00
26807;BME280;14380;49.910;6.792;2022-11-13T06:20:36;99615.69;;;3.38;100.00
26807;BME280;14380;49.910;6.792;2022-11-13T06:23:02;99626.16;;;3.35;100.00
26807;BME280;14380;49.910;6.792;2022-11-13T06:25:30;99619.09;;;3.46;100.00
26807;BME280;14380;49.910;6.792;2022-11-13T06:27:56;99615.03;;;3.23;100.00
26807;BME280;14380;49.910;6.792;2022-11-13T06:30:23;99619.38;;;3.21;100.00
26807;BME280;14380;49.910;6.792;2022-11-13T06:32:50;99621.06;;;3.29;100.00
26807;BME280;14380;49.910;6.792;2022-11-13T06:35:16;99613.34;;;3.16;100.00
26807;BME280;14380;49.910;6.792;2022-11-13T06:37:43;99619.41;;;3.17;100.00
26807;BME280;14380;49.910;6.792;2022-11-13T06:40:10;99612.53;;;3.09;100.00
26807;BME280;14380;49.910;6.792;2022-11-13T06:42:38;99610.88;;;3.04;100.00
26807;BME280;14380;49.910;6.792;2022-11-13T06:45:05;99609.81;;;3.22;100.00
26807;BME280;14380;49.910;6.792;2022-11-13T06:47:32;99607.38;;;3.06;100.00
26807;BME280;14380;49.910;6.792;2022-11-13T06:49:58;99605.66;;;3.05;100.00
26807;BME280;14380;49.910;6.792;2022-11-13T06:52:24;99597.69;;;3.16;100.00
26807;BME280;14380;49.910;6.792;2022-11-13T06:54:50;99594.84;;;3.35;100.00
26807;BME280;14380;49.910;6.792;2022-11-13T06:57:17;99598.09;;;3.54;100.00
26807;BME280;14380;49.910;6.792;2022-11-13T06:59:45;99599.19;;;3.37;100.00
26807;BME280;14380;49.910;6.792;2022-11-13T07:02:11;99597.44;;;3.39;100.00
26807;BME280;14380;49.910;6.792;2022-11-13T07:04:37;99598.19;;;3.48;100.00
26807;BME280;14380;49.910;6.792;2022-11-13T07:07:03;99595.59;;;3.48;100.00
26807;BME280;14380;49.910;6.792;2022-11-13T07:09:30;99599.88;;;3.50;100.00
26807;BME280;14380;49.910;6.792;2022-11-13T07:11:56;99593.78;;;3.53;100.00
26807;BME280;14380;49.910;6.792;2022-11-13T07:14:23;99591.25;;;3.45;100.00
26807;BME280;14380;49.910;6.792;2022-11-13T07:16:50;99587.75;;;3.46;100.00
26807;BME280;14380;49.910;6.792;2022-11-13T07:19:17;99584.25;;;3.47;100.00
26807;BME280;14380;49.910;6.792;2022-11-13T07:21:43;99586.88;;;3.47;100.00
26807;BME280;14380;49.910;6.792;2022-11-13T07:24:10;99579.22;;;3.32;100.00
26807;BME280;14380;49.910;6.792;2022-11-13T07:26:36;99577.31;;;3.46;100.00
26807;BME280;14380;49.910;6.792;2022-11-13T07:29:02;99578.31;;;3.36;100.00
26807;BME280;14380;49.910;6.792;2022-11-13T07:31:29;99571.28;;;3.42;100.00
26807;BME280;14380;49.910;6.792;2022-11-13T07:33:56;99571.41;;;3.33;100.00
26807;BME280;14380;49.910;6.792;2022-11-13T07:36:23;99574.88;;;3.32;100.00
26807;BME280;14380;49.910;6.792;2022-11-13T07:38:50;99561.66;;;3.46;100.00
26807;BME280;14380;49.910;6.792;2022-11-13T07:41:16;99556.25;;;3.60;100.00
26807;BME280;14380;49.910;6.792;2022-11-13T07:43:43;99561.94;;;3.23;100.00
26807;BME280;14380;49.910;6.792;2022-11-13T07:46:09;99558.31;;;3.36;100.00
26807;BME280;14380;49.910;6.792;2022-11-13T07:48:35;99564.34;;;3.41;100.00
26807;BME280;14380;49.910;6.792;2022-11-13T07:51:04;99557.38;;;3.40;100.00
26807;BME280;14380;49.910;6.792;2022-11-13T07:53:31;99556.41;;;3.49;100.00
26807;BME280;14380;49.910;6.792;2022-11-13T07:55:59;99569.44;;;3.49;100.00
26807;BME280;14380;49.910;6.792;2022-11-13T07:58:26;99562.56;;;3.42;100.00
26807;BME280;14380;49.910;6.792;2022-11-13T08:00:52;99558.28;;;3.39;100.00
26807;BME280;14380;49.910;6.792;2022-11-13T08:03:18;99560.81;;;3.46;100.00
26807;BME280;14380;49.910;6.792;2022-11-13T08:05:45;99554.88;;;3.31;100.00
26807;BME280;14380;49.910;6.792;2022-11-13T08:08:13;99559.88;;;3.50;100.00
26807;BME280;14380;49.910;6.792;2022-11-13T08:10:40;99557.50;;;3.31;100.00
26807;BME280;14380;49.910;6.792;2022-11-13T08:13:07;99551.25;;;3.43;100.00
26807;BME280;14380;49.910;6.792;2022-11-13T08:15:33;99544.94;;;3.58;100.00
26807;BME280;14380;49.910;6.792;2022-11-13T08:18:00;99548.34;;;3.65;100.00
26807;BME280;14380;49.910;6.792;2022-11-13T08:20:27;99558.03;;;3.55;100.00
26807;BME280;14380;49.910;6.792;2022-11-13T08:22:55;99547.50;;;3.63;100.00
26807;BME280;14380;49.910;6.792;2022-11-13T08:25:22;99543.72;;;3.82;100.00
26807;BME280;14380;49.910;6.792;2022-11-13T08:27:50;99534.13;;;3.84;100.00
26807;BME280;14380;49.910;6.792;2022-11-13T08:30:17;99540.97;;;3.93;100.00
26807;BME280;14380;49.910;6.792;2022-11-13T08:32:43;99540.91;;;3.98;100.00
26807;BME280;14380;49.910;6.792;2022-11-13T08:35:10;99535.63;;;4.01;100.00
26807;BME280;14380;49.910;6.792;2022-11-13T08:37:36;99532.25;;;3.94;100.00
26807;BME280;14380;49.910;6.792;2022-11-13T08:40:03;99530.34;;;4.02;100.00
26807;BME280;14380;49.910;6.792;2022-11-13T08:42:30;99524.19;;;4.08;100.00
26807;BME280;14380;49.910;6.792;2022-11-13T08:44:57;99510.88;;;4.22;100.00
26807;BME280;14380;49.910;6.792;2022-11-13T08:47:23;99508.31;;;4.19;100.00
26807;BME280;14380;49.910;6.792;2022-11-13T08:49:52;99512.41;;;4.34;100.00
26807;BME280;14380;49.910;6.792;2022-11-13T08:52:18;99516.59;;;4.44;100.00
26807;BME280;14380;49.910;6.792;2022-11-13T08:54:45;99511.16;;;4.55;100.00
26807;BME280;14380;49.910;6.792;2022-11-13T08:57:12;99507.66;;;4.58;100.00
26807;BME280;14380;49.910;6.792;2022-11-13T08:59:39;99493.13;;;4.87;100.00
26807;BME280;14380;49.910;6.792;2022-11-13T09:02:06;99491.13;;;5.01;100.00
26807;BME280;14380;49.910;6.792;2022-11-13T09:04:32;99497.59;;;5.26;100.00
26807;BME280;14380;49.910;6.792;2022-11-13T09:06:58;99492.94;;;5.37;100.00
26807;BME280;14380;49.910;6.792;2022-11-13T09:09:24;99481.50;;;5.41;100.00
26807;BME280;14380;49.910;6.792;2022-11-13T09:11:51;99482.69;;;5.67;100.00
26807;BME280;14380;49.910;6.792;2022-11-13T09:14:17;99483.47;;;5.71;100.00
26807;BME280;14380;49.910;6.792;2022-11-13T09:16:45;99481.81;;;5.66;100.00
26807;BME280;14380;49.910;6.792;2022-11-13T09:19:11;99477.47;;;6.03;100.00
26807;BME280;14380;49.910;6.792;2022-11-13T09:21:38;99477.81;;;5.88;100.00
26807;BME280;14380;49.910;6.792;2022-11-13T09:24:04;99472.72;;;6.19;100.00
26807;BME280;14380;49.910;6.792;2022-11-13T09:26:32;99471.50;;;6.33;100.00
26807;BME280;14380;49.910;6.792;2022-11-13T09:28:59;99473.69;;;6.48;100.00
26807;BME280;14380;49.910;6.792;2022-11-13T09:31:25;99469.69;;;6.68;100.00
26807;BME280;14380;49.910;6.792;2022-11-13T09:33:53;99467.00;;;6.69;100.00
26807;BME280;14380;49.910;6.792;2022-11-13T09:36:19;99463.03;;;6.86;100.00
26807;BME280;14380;49.910;6.792;2022-11-13T09:38:45;99458.13;;;7.05;100.00
26807;BME280;14380;49.910;6.792;2022-11-13T09:41:12;99460.56;;;6.81;100.00
26807;BME280;14380;49.910;6.792;2022-11-13T09:43:41;99464.00;;;7.13;100.00
26807;BME280;14380;49.910;6.792;2022-11-13T09:46:10;99453.63;;;7.39;100.00
26807;BME280;14380;49.910;6.792;2022-11-13T09:48:40;99457.91;;;7.41;100.00
26807;BME280;14380;49.910;6.792;2022-11-13T09:51:12;99451.91;;;7.38;100.00
26807;BME280;14380;49.910;6.792;2022-11-13T09:53:39;99443.94;;;7.39;100.00
26807;BME280;14380;49.910;6.792;2022-11-13T09:56:07;99448.00;;;7.78;100.00
26807;BME280;14380;49.910;6.792;2022-11-13T09:58:42;99450.66;;;7.50;100.00
26807;BME280;14380;49.910;6.792;2022-11-13T10:01:12;99452.19;;;7.57;100.00
26807;BME280;14380;49.910;6.792;2022-11-13T10:03:44;99438.22;;;7.82;100.00
26807;BME280;14380;49.910;6.792;2022-11-13T10:06:14;99450.06;;;7.95;100.00
26807;BME280;14380;49.910;6.792;2022-11-13T10:08:46;99441.63;;;7.85;100.00
26807;BME280;14380;49.910;6.792;2022-11-13T10:11:15;99439.97;;;8.08;100.00
26807;BME280;14380;49.910;6.792;2022-11-13T10:13:46;99441.81;;;8.06;100.00
26807;BME280;14380;49.910;6.792;2022-11-13T10:16:15;99431.84;;;8.16;100.00
26807;BME280;14380;49.910;6.792;2022-11-13T10:18:42;99429.03;;;8.46;100.00
26807;BME280;14380;49.910;6.792;2022-11-13T10:21:14;99432.72;;;8.67;100.00
26807;BME280;14380;49.910;6.792;2022-11-13T10:23:43;99429.38;;;8.37;100.00
26807;BME280;14380;49.910;6.792;2022-11-13T10:26:12;99426.22;;;8.76;100.00
26807;BME280;14380;49.910;6.792;2022-11-13T10:28:39;99417.75;;;8.68;100.00
26807;BME280;14380;49.910;6.792;2022-11-13T10:31:07;99416.63;;;8.75;100.00
26807;BME280;14380;49.910;6.792;2022-11-13T10:33:34;99405.31;;;9.19;100.00
26807;BME280;14380;49.910;6.792;2022-11-13T10:36:01;99404.91;;;9.06;100.00
26807;BME280;14380;49.910;6.792;2022-11-13T10:38:32;99405.59;;;9.11;100.00
26807;BME280;14380;49.910;6.792;2022-11-13T10:41:03;99400.28;;;9.35;100.00
26807;BME280;14380;49.910;6.792;2022-11-13T10:43:32;99390.66;;;9.56;100.00
26807;BME280;14380;49.910;6.792;2022-11-13T10:45:59;99399.06;;;9.44;100.00
26807;BME280;14380;49.910;6.792;2022-11-13T10:48:26;99398.72;;;9.51;100.00
26807;BME280;14380;49.910;6.792;2022-11-13T10:50:54;99387.69;;;9.64;100.00
26807;BME280;14380;49.910;6.792;2022-11-13T10:53:21;99382.09;;;9.72;100.00
26807;BME280;14380;49.910;6.792;2022-11-13T10:55:50;99384.28;;;10.03;100.00
26807;BME280;14380;49.910;6.792;2022-11-13T10:58:18;99382.34;;;9.88;100.00
26807;BME280;14380;49.910;6.792;2022-11-13T11:00:46;99381.53;;;9.86;100.00
26807;BME280;14380;49.910;6.792;2022-11-13T11:03:14;99369.53;;;10.20;100.00
26807;BME280;14380;49.910;6.792;2022-11-13T11:05:50;99364.91;;;10.25;100.00
26807;BME280;14380;49.910;6.792;2022-11-13T11:08:16;99358.72;;;10.05;100.00
26807;BME280;14380;49.910;6.792;2022-11-13T11:10:52;99344.44;;;10.30;100.00
26807;BME280;14380;49.910;6.792;2022-11-13T11:13:37;99342.72;;;10.29;100.00
26807;BME280;14380;49.910;6.792;2022-11-13T11:16:04;99333.06;;;10.49;100.00
26807;BME280;14380;49.910;6.792;2022-11-13T11:18:31;99325.94;;;10.11;100.00
26807;BME280;14380;49.910;6.792;2022-11-13T11:21:00;99320.00;;;10.65;100.00
26807;BME280;14380;49.910;6.792;2022-11-13T11:23:34;99312.16;;;10.82;100.00
26807;BME280;14380;49.910;6.792;2022-11-13T11:26:03;99313.25;;;10.59;100.00
26807;BME280;14380;49.910;6.792;2022-11-13T11:28:34;99301.94;;;10.94;100.00
26807;BME280;14380;49.910;6.792;2022-11-13T11:31:06;99294.25;;;10.51;100.00
26807;BME280;14380;49.910;6.792;2022-11-13T11:33:35;99297.88;;;10.86;100.00
26807;BME280;14380;49.910;6.792;2022-11-13T11:36:05;99286.09;;;10.94;100.00
26807;BME280;14380;49.910;6.792;2022-11-13T11:47:15;99263.78;;;10.99;100.00
26807;BME280;14380;49.910;6.792;2022-11-13T11:52:54;99254.72;;;11.23;100.00
26807;BME280;14380;49.910;6.792;2022-11-13T11:55:47;99247.34;;;11.29;100.00
26807;BME280;14380;49.910;6.792;2022-11-13T11:58:27;99246.09;;;11.54;100.00
26807;BME280;14380;49.910;6.792;2022-11-13T12:01:03;99250.69;;;11.51;100.00
26807;BME280;14380;49.910;6.792;2022-11-13T12:03:50;99239.41;;;11.47;100.00
26807;BME280;14380;49.910;6.792;2022-11-13T12:06:29;99236.16;;;11.59;100.00
26807;BME280;14380;49.910;6.792;2022-11-13T12:09:16;99224.00;;;11.55;100.00
26807;BME280;14380;49.910;6.792;2022-11-13T12:11:47;99223.47;;;11.49;100.00
26807;BME280;14380;49.910;6.792;2022-11-13T12:14:22;99218.09;;;12.01;96.22
26807;BME280;14380;49.910;6.792;2022-11-13T12:17:01;99213.19;;;11.94;100.00
26807;BME280;14380;49.910;6.792;2022-11-13T12:19:39;99208.34;;;12.36;98.63
26807;BME280;14380;49.910;6.792;2022-11-13T12:22:15;99207.44;;;12.03;100.00
26807;BME280;14380;49.910;6.792;2022-11-13T12:24:55;99211.97;;;12.01;100.00
26807;BME280;14380;49.910;6.792;2022-11-13T12:27:31;99200.09;;;12.72;89.60
26807;BME280;14380;49.910;6.792;2022-11-13T12:30:09;99202.13;;;12.83;84.70
26807;BME280;14380;49.910;6.792;2022-11-13T12:32:48;99203.63;;;12.57;88.95
26807;BME280;14380;49.910;6.792;2022-11-13T12:35:20;99197.75;;;12.36;95.81
26807;BME280;14380;49.910;6.792;2022-11-13T12:37:52;99186.19;;;12.69;91.14
26807;BME280;14380;49.910;6.792;2022-11-13T12:40:27;99185.06;;;12.73;86.41
26807;BME280;14380;49.910;6.792;2022-11-13T12:43:01;99192.50;;;12.34;89.15
26807;BME280;14380;49.910;6.792;2022-11-13T12:45:44;99186.38;;;12.96;82.31
26807;BME280;14380;49.910;6.792;2022-11-13T12:48:25;99181.84;;;12.36;93.11
26807;BME280;14380;49.910;6.792;2022-11-13T12:50:56;99188.50;;;12.43;87.83
26807;BME280;14380;49.910;6.792;2022-11-13T12:53:25;99189.44;;;12.26;91.14
26807;BME280;14380;49.910;6.792;2022-11-13T12:55:59;99196.38;;;12.28;89.38
26807;BME280;14380;49.910;6.792;2022-11-13T12:58:28;99188.25;;;12.47;86.42
26807;BME280;14380;49.910;6.792;2022-11-13T13:00:59;99188.09;;;12.34;86.79
26807;BME280;14380;49.910;6.792;2022-11-13T13:03:43;99185.50;;;12.01;95.69
26807;BME280;14380;49.910;6.792;2022-11-13T13:06:21;99183.78;;;11.66;92.66
26807;BME280;14380;49.910;6.792;2022-11-13T13:09:02;99181.47;;;11.76;92.79
26807;BME280;14380;49.910;6.792;2022-11-13T13:11:40;99179.28;;;12.18;90.43
26807;BME280;14380;49.910;6.792;2022-11-13T13:14:31;99175.25;;;12.27;87.46
26807;BME280;14380;49.910;6.792;2022-11-13T13:17:16;99167.25;;;11.79;95.02
26807;BME280;14380;49.910;6.792;2022-11-13T13:19:43;99155.88;;;12.26;85.48